Time;durP1;ratioP1;P1;durP2;ratioP2;P2;SDS_P1;SDS_P2;PMS_P1;PMS_P2;Temp;Humidity;BMP_temperature;BMP_pressure;BME280_temperature;BME280_humidity;BME280_pressure;Samples;Min_cycle;Max_cycle;Signal;HPM_P1;HPM_P2
2022/06/11 00:03:32;;;;;;;2.40;1.20;;;18.50;99.90;;;;;;1931476;72;22189;-85
2022/06/11 00:06:45;;;;;;;3.17;1.27;;;18.60;99.90;;;;;;1896195;73;21575;-85
2022/06/11 00:09:57;;;;;;;2.35;0.70;;;18.50;99.90;;;;;;1876346;75;21148;-86
2022/06/11 00:12:48;;;;;;;3.50;1.10;;;18.40;99.90;;;;;;1893494;75;21187;-85
2022/06/11 00:15:58;;;;;;;2.17;0.80;;;18.30;99.90;;;;;;1887452;75;21557;-85
2022/06/11 00:21:38;;;;;;;3.58;0.90;;;18.20;99.90;;;;;;1945525;72;22158;-85
2022/06/11 00:27:27;;;;;;;2.90;1.10;;;18.10;99.90;;;;;;1935128;72;22134;-85
2022/06/11 00:30:37;;;;;;;3.15;1.10;;;18.10;99.90;;;;;;1915489;74;21162;-85
2022/06/11 00:33:47;;;;;;;5.42;1.42;;;18.00;99.90;;;;;;1917552;72;21556;-86
2022/06/11 00:36:40;;;;;;;3.75;1.45;;;17.90;99.90;;;;;;1917329;72;21095;-85
2022/06/11 00:42:35;;;;;;;3.15;0.95;;;18.00;99.90;;;;;;1936772;72;22209;-85
2022/06/11 00:45:48;;;;;;;1.80;0.93;;;18.10;99.90;;;;;;1899567;75;21132;-86
2022/06/11 00:49:00;;;;;;;2.92;1.37;;;18.10;99.90;;;;;;1893946;75;21587;-86
2022/06/11 00:51:54;;;;;;;1.85;0.90;;;18.20;99.90;;;;;;1887695;75;21531;-87
2022/06/11 00:57:48;;;;;;;5.20;0.98;;;18.20;99.90;;;;;;1939019;72;22223;-86
2022/06/11 01:03:41;;;;;;;2.62;0.90;;;18.30;99.90;;;;;;1934474;72;22094;-86
2022/06/11 01:06:54;;;;;;;1.75;0.82;;;18.20;99.90;;;;;;1881368;73;21096;-86
2022/06/11 01:10:14;;;;;;;1.70;0.80;;;18.20;99.90;;;;;;1899954;75;21109;-89
2022/06/11 01:13:13;;;;;;;1.85;0.80;;;18.20;99.90;;;;;;1879210;75;21063;-89
2022/06/11 01:16:26;;;;;;;1.98;0.72;;;18.20;99.90;;;;;;1872465;75;21078;-88
2022/06/11 01:19:30;;;;;;;2.95;1.20;;;18.20;99.90;;;;;;1885136;75;21225;-88
2022/06/11 01:22:28;;;;;;;2.83;1.35;;;18.10;99.90;;;;;;1872967;75;21110;-89
2022/06/11 01:25:25;;;;;;;2.60;1.00;;;18.00;99.90;;;;;;1881052;75;21067;-89
2022/06/11 01:28:28;;;;;;;3.10;1.10;;;17.90;99.90;;;;;;1888882;75;21151;-89
2022/06/11 01:31:24;;;;;;;2.05;0.88;;;17.80;99.90;;;;;;1885981;75;21039;-88
2022/06/11 01:34:20;;;;;;;3.47;0.78;;;17.80;99.90;;;;;;1886506;75;21248;-90
2022/06/11 01:37:14;;;;;;;2.77;0.95;;;17.80;99.90;;;;;;1884129;75;21541;-89
2022/06/11 01:40:10;;;;;;;2.60;0.98;;;17.80;99.90;;;;;;1876018;75;21281;-89
2022/06/11 01:43:06;;;;;;;2.45;0.70;;;17.80;99.90;;;;;;1876483;75;21074;-89
2022/06/11 01:46:00;;;;;;;3.05;0.78;;;17.70;99.90;;;;;;1871514;75;21153;-89
2022/06/11 01:48:55;;;;;;;3.40;1.22;;;17.70;99.90;;;;;;1873114;75;21108;-89
2022/06/11 01:54:38;;;;;;;2.12;1.17;;;17.50;99.90;;;;;;1941682;72;22154;-88
2022/06/11 01:58:09;;;;;;;3.50;1.60;;;17.50;99.90;;;;;;1905254;75;21601;-89
2022/06/11 02:04:10;;;;;;;2.00;0.90;;;17.50;99.90;;;;;;1942833;72;22225;-89
2022/06/11 02:07:24;;;;;;;4.15;1.80;;;17.40;99.90;;;;;;1909388;75;21116;-89
2022/06/11 02:10:36;;;;;;;3.52;1.65;;;17.40;99.90;;;;;;1884967;75;21127;-88
2022/06/11 02:13:33;;;;;;;2.95;1.55;;;17.40;99.90;;;;;;1906850;75;21055;-89
2022/06/11 02:19:34;;;;;;;5.35;2.20;;;17.50;99.90;;;;;;1941025;72;28036;-88
2022/06/11 02:25:27;;;;;;;4.05;1.05;;;17.60;99.90;;;;;;1948085;72;22128;-88
2022/06/11 02:48:16;;;;;;;1.27;0.80;;;17.20;99.90;;;;;;1934888;72;22137;-88
2022/06/11 02:51:30;;;;;;;2.67;0.88;;;17.20;99.90;;;;;;1899143;75;21075;-90
2022/06/11 02:58:25;;;;;;;2.47;0.75;;;17.10;99.90;;;;;;1856915;75;21152;-87
2022/06/11 03:01:41;;;;;;;5.60;0.90;;;17.10;99.90;;;;;;1898161;75;21094;-88
2022/06/11 03:05:25;;;;;;;0.95;0.70;;;17.10;99.90;;;;;;1799971;73;21110;-88
2022/06/11 03:22:30;;;;;;;2.80;0.80;;;17.10;99.90;;;;;;1957941;72;22111;-88
2022/06/11 03:28:22;;;;;;;0.72;0.70;;;16.90;99.90;;;;;;1945807;72;22759;-89
2022/06/11 03:34:18;;;;;;;1.22;1.10;;;16.90;99.90;;;;;;1976623;72;22114;-88
2022/06/11 03:37:28;;;;;;;2.17;1.05;;;16.90;99.90;;;;;;1927006;73;21074;-89
2022/06/11 03:40:38;;;;;;;1.65;1.00;;;17.00;99.90;;;;;;1927855;73;21038;-90
2022/06/11 03:46:20;;;;;;;1.95;0.90;;;16.90;99.90;;;;;;1953430;72;22090;-88
2022/06/11 03:49:30;;;;;;;4.50;1.00;;;16.80;99.90;;;;;;1926144;74;21109;-90
2022/06/11 03:52:41;;;;;;;2.37;1.22;;;16.80;99.90;;;;;;1917625;75;21058;-89
2022/06/11 03:55:33;;;;;;;3.08;1.47;;;16.80;99.90;;;;;;1924408;73;21067;-88
2022/06/11 03:58:45;;;;;;;2.72;1.25;;;16.80;99.90;;;;;;1905237;74;21072;-88
2022/06/11 04:04:22;;;;;;;4.00;1.07;;;16.70;99.90;;;;;;1958493;72;22124;-88
2022/06/11 04:07:33;;;;;;;3.42;1.40;;;16.70;99.90;;;;;;1916707;73;21027;-88
2022/06/11 04:13:30;;;;;;;2.47;1.30;;;16.70;99.90;;;;;;1950408;73;22293;-88
2022/06/11 04:16:43;;;;;;;2.10;1.10;;;16.70;99.90;;;;;;1933884;73;21059;-87
2022/06/11 04:22:36;;;;;;;3.95;1.25;;;16.70;99.90;;;;;;1955842;72;22153;-88
2022/06/11 04:25:47;;;;;;;1.95;1.10;;;16.70;99.90;;;;;;1908324;74;21094;-89
2022/06/11 04:28:59;;;;;;;1.30;1.00;;;16.70;99.90;;;;;;1913859;74;21112;-89
2022/06/11 04:31:53;;;;;;;2.62;1.30;;;16.80;99.90;;;;;;1905310;75;21090;-89
2022/06/11 04:37:47;;;;;;;4.53;1.32;;;16.80;99.90;;;;;;1939110;72;22148;-88
2022/06/11 04:43:37;;;;;;;2.20;1.05;;;16.80;99.90;;;;;;1938535;72;22310;-88
2022/06/11 04:46:48;;;;;;;3.58;1.00;;;16.80;99.90;;;;;;1910340;74;21113;-89
2022/06/11 04:50:01;;;;;;;1.40;1.30;;;16.90;99.90;;;;;;1903615;75;21047;-89
2022/06/11 04:52:52;;;;;;;2.70;1.02;;;16.90;99.90;;;;;;1914686;74;21036;-89
2022/06/11 04:56:02;;;;;;;2.40;1.20;;;17.00;99.90;;;;;;1912452;74;21074;-89
2022/06/11 04:58:55;;;;;;;2.95;1.50;;;17.00;99.90;;;;;;1912942;74;21099;-90
2022/06/11 05:01:48;;;;;;;2.80;1.37;;;17.00;99.90;;;;;;1907674;74;21126;-89
2022/06/11 05:04:40;;;;;;;2.95;1.37;;;17.00;99.90;;;;;;1895551;73;21088;-89
2022/06/11 05:07:31;;;;;;;4.47;1.50;;;17.00;99.90;;;;;;1906258;73;21073;-88
2022/06/11 05:13:01;;;;;;;3.50;1.72;;;17.00;99.90;;;;;;1944171;72;22325;-88
2022/06/11 05:16:15;;;;;;;2.85;1.37;;;17.00;99.90;;;;;;1891009;74;21437;-88
2022/06/11 05:19:26;;;;;;;4.50;1.57;;;17.10;99.90;;;;;;1912326;75;21039;-89
2022/06/11 05:22:18;;;;;;;5.92;1.47;;;17.10;99.90;;;;;;1902062;75;21120;-89
2022/06/11 05:28:20;;;;;;;2.90;1.00;;;17.10;99.90;;;;;;1944083;72;22128;-87
2022/06/11 05:31:30;;;;;;;5.62;1.10;;;17.20;99.90;;;;;;1906220;74;21130;-88
2022/06/11 05:37:23;;;;;;;3.77;1.00;;;17.30;99.90;;;;;;1966848;72;22235;-88
2022/06/11 05:40:38;;;;;;;2.17;0.88;;;17.30;99.90;;;;;;1883593;75;21172;-88
2022/06/11 05:43:47;;;;;;;2.25;1.02;;;17.30;99.90;;;;;;1873203;75;21567;-86
2022/06/11 05:49:21;;;;;;;2.90;1.00;;;17.50;99.90;;;;;;1960393;72;22292;-82
2022/06/11 05:52:34;;;;;;;2.70;1.05;;;17.50;99.90;;;;;;1919997;73;21101;-82
2022/06/11 05:55:46;;;;;;;1.87;1.10;;;17.40;99.90;;;;;;1923180;73;21183;-84
2022/06/11 05:58:42;;;;;;;1.65;1.25;;;17.40;99.90;;;;;;1917478;73;21173;-82
2022/06/11 06:04:38;;;;;;;1.85;1.00;;;17.60;99.90;;;;;;1954517;72;22135;-82
2022/06/11 06:07:48;;;;;;;2.25;1.30;;;17.70;99.90;;;;;;1892340;73;21055;-83
2022/06/11 06:10:58;;;;;;;2.22;1.20;;;17.70;99.90;;;;;;1891418;75;21071;-83
2022/06/11 06:13:50;;;;;;;2.20;1.00;;;17.70;99.90;;;;;;1892705;75;21153;-83
2022/06/11 06:16:59;;;;;;;2.70;1.10;;;17.80;99.90;;;;;;1911557;75;21019;-83
2022/06/11 06:19:52;;;;;;;2.55;1.07;;;17.80;99.90;;;;;;1890637;75;21070;-83
2022/06/11 06:22:44;;;;;;;1.55;1.30;;;17.90;99.90;;;;;;1884675;75;21055;-83
2022/06/11 06:25:35;;;;;;;4.80;1.30;;;17.90;99.90;;;;;;1905171;73;21337;-83
2022/06/11 06:28:28;;;;;;;6.50;1.22;;;18.00;99.90;;;;;;1902702;75;21307;-81
2022/06/11 06:31:20;;;;;;;5.83;1.50;;;18.10;99.90;;;;;;1896947;75;21133;-86
2022/06/11 06:34:11;;;;;;;3.25;1.07;;;18.20;99.90;;;;;;1907190;73;21141;-86
2022/06/11 06:37:03;;;;;;;2.70;1.17;;;18.20;99.90;;;;;;1898320;73;21233;-86
2022/06/11 06:39:54;;;;;;;2.42;1.02;;;18.30;99.90;;;;;;1893965;75;21046;-86
2022/06/11 06:42:46;;;;;;;3.08;0.98;;;18.40;99.90;;;;;;1901034;75;21169;-85
2022/06/11 06:45:37;;;;;;;2.98;1.02;;;18.50;99.90;;;;;;1898249;75;21192;-87
2022/06/11 06:48:29;;;;;;;3.15;1.25;;;18.50;99.90;;;;;;1894834;75;21086;-86
2022/06/11 06:51:21;;;;;;;2.25;1.22;;;18.60;99.90;;;;;;1901276;75;21184;-86
2022/06/11 06:54:12;;;;;;;3.30;0.98;;;18.70;99.90;;;;;;1905117;75;21639;-86
2022/06/11 06:57:05;;;;;;;3.55;1.42;;;18.80;99.90;;;;;;1890394;75;21171;-86
2022/06/11 06:59:56;;;;;;;2.92;0.80;;;18.90;99.90;;;;;;1898606;75;21095;-87
2022/06/11 07:02:49;;;;;;;2.90;0.95;;;18.90;99.90;;;;;;1894208;75;21565;-87
2022/06/11 07:05:41;;;;;;;3.52;1.10;;;19.00;99.90;;;;;;1903933;73;21153;-87
2022/06/11 07:08:33;;;;;;;2.45;1.02;;;19.00;99.90;;;;;;1896625;73;21126;-86
2022/06/11 07:11:24;;;;;;;3.37;0.90;;;19.10;99.90;;;;;;1904467;75;21134;-86
2022/06/11 07:14:16;;;;;;;3.40;1.10;;;19.20;99.90;;;;;;1894369;75;21126;-86
2022/06/11 07:17:10;;;;;;;3.37;1.10;;;19.40;99.90;;;;;;1897158;75;21177;-86
2022/06/11 07:20:05;;;;;;;3.05;1.22;;;19.40;99.90;;;;;;1895898;75;21149;-86
2022/06/11 07:23:00;;;;;;;2.25;1.30;;;19.50;99.90;;;;;;1904674;75;21095;-86
2022/06/11 07:25:54;;;;;;;1.82;1.12;;;19.50;99.90;;;;;;1902167;75;21050;-86
2022/06/11 07:28:49;;;;;;;2.25;1.00;;;19.60;99.90;;;;;;1890292;75;21113;-86
2022/06/11 07:31:42;;;;;;;3.15;1.30;;;19.70;99.90;;;;;;1900313;75;21122;-85
2022/06/11 07:34:35;;;;;;;3.90;1.40;;;19.70;99.90;;;;;;1902416;73;21167;-86
2022/06/11 07:37:28;;;;;;;1.77;1.12;;;19.80;99.90;;;;;;1897205;73;21444;-86
2022/06/11 07:40:21;;;;;;;2.15;1.10;;;19.90;99.90;;;;;;1899105;75;21098;-85
2022/06/11 07:43:12;;;;;;;1.35;1.10;;;20.00;99.90;;;;;;1898803;75;21063;-88
2022/06/11 07:46:05;;;;;;;3.30;0.93;;;20.00;99.90;;;;;;1897661;75;21649;-88
2022/06/11 07:51:40;;;;;;;2.95;0.93;;;20.20;99.90;;;;;;1932865;73;22322;-87
2022/06/11 07:54:50;;;;;;;5.17;1.07;;;20.30;99.90;;;;;;1912603;73;21060;-87
2022/06/11 07:58:00;;;;;;;3.85;1.20;;;20.40;99.90;;;;;;1912850;74;21181;-92
2022/06/11 08:00:53;;;;;;;5.10;1.70;;;20.40;99.90;;;;;;1905002;74;21040;-92
2022/06/11 08:04:03;;;;;;;2.08;1.25;;;20.50;99.90;;;;;;1901953;74;21144;-92
2022/06/11 08:06:54;;;;;;;3.45;1.22;;;20.50;99.90;;;;;;1910071;74;21157;-94
2022/06/11 08:09:46;;;;;;;3.33;1.17;;;20.60;99.90;;;;;;1913755;74;21088;-93
2022/06/11 08:12:37;;;;;;;2.87;1.20;;;20.70;99.90;;;;;;1912674;74;21209;-93
2022/06/11 08:15:28;;;;;;;2.85;0.93;;;20.70;99.90;;;;;;1910756;73;21102;-93
2022/06/11 08:18:20;;;;;;;2.58;1.20;;;20.80;99.90;;;;;;1906199;74;21099;-93
2022/06/11 08:21:11;;;;;;;2.52;1.40;;;20.80;99.90;;;;;;1905231;73;21105;-92
2022/06/11 08:24:02;;;;;;;1.70;1.20;;;20.90;99.90;;;;;;1910076;74;21207;-92
2022/06/11 08:26:54;;;;;;;3.05;1.30;;;21.00;99.90;;;;;;1918609;73;21079;-92
2022/06/11 08:29:46;;;;;;;3.20;1.20;;;21.10;99.90;;;;;;1913207;74;21149;-92
2022/06/11 08:32:37;;;;;;;1.47;0.93;;;21.10;99.90;;;;;;1913739;74;21093;-92
2022/06/11 08:35:34;;;;;;;1.87;1.07;;;21.20;99.90;;;;;;1905250;74;21163;-92
2022/06/11 08:38:25;;;;;;;2.25;1.17;;;21.30;99.90;;;;;;1903982;74;21163;-91
2022/06/11 08:41:19;;;;;;;6.78;1.00;;;21.50;99.90;;;;;;1907734;74;21099;-92
2022/06/11 08:44:17;;;;;;;3.92;1.30;;;21.50;99.90;;;;;;1915073;74;21066;-91
2022/06/11 09:17:56;;;;;;;3.22;1.20;;;22.00;99.90;;;;;;1923291;72;27931;-75
2022/06/11 09:21:14;;;;;;;2.92;1.10;;;22.40;99.90;;;;;;1918392;74;21205;-75
2022/06/11 09:24:36;;;;;;;2.50;1.10;;;22.50;99.90;;;;;;1904689;74;21161;-75
2022/06/11 09:27:31;;;;;;;3.50;1.10;;;22.60;99.90;;;;;;1910299;74;21110;-75
2022/06/11 09:30:43;;;;;;;4.12;1.20;;;22.50;99.90;;;;;;1901442;73;21042;-76
2022/06/11 09:36:20;;;;;;;2.85;1.02;;;22.30;99.90;;;;;;1937960;72;22244;-75
2022/06/11 09:39:40;;;;;;;1.62;1.00;;;22.30;99.90;;;;;;1899288;73;21076;-76
2022/06/11 09:43:01;;;;;;;1.42;0.93;;;22.40;99.90;;;;;;1889320;75;21111;-75
2022/06/11 09:45:57;;;;;;;1.80;0.88;;;22.50;99.90;;;;;;1892262;75;21183;-76
2022/06/11 09:49:23;;;;;;;2.60;1.00;;;22.60;99.90;;;;;;1886115;75;21620;-76
2022/06/11 09:52:15;;;;;;;;;;;22.60;99.90;;;;;;1897046;75;21107;-76
2022/06/11 09:55:11;;;;;;;2.98;1.10;;;22.70;99.90;;;;;;1900035;75;20217;-76
2022/06/11 09:58:07;;;;;;;1.52;0.90;;;22.70;99.90;;;;;;1898337;75;21147;-76
2022/06/11 10:01:03;;;;;;;3.35;0.90;;;22.80;99.90;;;;;;1900603;75;21177;-76
2022/06/11 10:03:58;;;;;;;2.10;1.05;;;23.00;99.90;;;;;;1911868;73;21168;-76
2022/06/11 10:09:32;;;;;;;2.67;0.93;;;23.10;99.90;;;;;;1926996;72;22756;-75
2022/06/11 10:15:27;;;;;;;1.75;0.93;;;23.20;99.90;;;;;;1939189;72;23380;-75
2022/06/11 10:18:38;;;;;;;3.45;1.10;;;23.30;99.90;;;;;;1899899;75;21135;-75
2022/06/11 10:21:52;;;;;;;1.57;0.90;;;23.50;99.90;;;;;;1887147;75;21160;-75
2022/06/11 10:27:30;;;;;;;1.77;1.00;;;23.60;99.90;;;;;;1912449;72;28844;-75
2022/06/11 10:30:45;;;;;;;1.35;0.70;;;23.90;99.90;;;;;;1898260;75;21110;-75
2022/06/11 10:33:58;;;;;;;2.52;0.90;;;23.90;99.90;;;;;;1889525;73;21598;-75
2022/06/11 10:36:53;;;;;;;1.55;0.80;;;24.00;99.90;;;;;;1900824;73;21115;-75
2022/06/11 10:40:09;;;;;;;1.15;0.80;;;24.20;99.90;;;;;;1900168;75;21160;-75
2022/06/11 10:43:04;;;;;;;1.42;1.00;;;24.30;99.90;;;;;;1895712;75;21149;-75
2022/06/11 10:45:58;;;;;;;2.27;1.00;;;24.40;99.90;;;;;;1898595;75;21061;-75
2022/06/11 10:49:01;;;;;;;0.95;0.75;;;24.30;99.90;;;;;;1897846;75;21602;-76
2022/06/11 10:51:55;;;;;;;1.25;0.80;;;24.40;99.90;;;;;;1781202;79;21179;-76
2022/06/11 10:54:46;;;;;;;1.15;0.68;;;24.50;99.90;;;;;;1767814;79;21093;-76
2022/06/11 10:57:39;;;;;;;2.52;0.90;;;24.60;99.90;;;;;;1770818;79;21738;-76
2022/06/11 11:00:34;;;;;;;1.87;1.00;;;24.60;99.90;;;;;;1770937;80;21190;-76
2022/06/11 11:03:31;;;;;;;3.55;1.12;;;24.80;99.90;;;;;;1776794;80;21150;-75
2022/06/11 11:06:28;;;;;;;1.90;1.00;;;24.90;99.90;;;;;;1771361;79;21181;-75
2022/06/11 11:09:24;;;;;;;1.75;1.20;;;25.00;99.90;;;;;;1764571;79;21568;-76
2022/06/11 11:12:24;;;;;;;1.92;1.07;;;25.10;99.90;;;;;;1764940;80;21173;-75
2022/06/11 11:15:18;;;;;;;1.55;0.88;;;25.20;99.90;;;;;;1777092;79;21603;-75
2022/06/11 11:18:15;;;;;;;1.22;0.90;;;25.20;99.90;;;;;;1768824;79;21206;-75
2022/06/11 11:21:09;;;;;;;1.45;0.80;;;25.20;99.90;;;;;;1772294;80;21211;-75
2022/06/11 11:24:05;;;;;;;1.17;0.78;;;25.30;99.90;;;;;;1772957;80;21148;-75
2022/06/11 11:29:40;;;;;;;2.05;1.00;;;25.40;99.90;;;;;;1934992;72;22162;-75
2022/06/11 11:32:50;;;;;;;2.40;0.80;;;25.40;99.90;;;;;;1897952;75;21091;-76
2022/06/11 11:36:17;;;;;;;2.10;0.82;;;25.50;99.90;;;;;;1901234;74;21552;-76
2022/06/11 11:39:27;;;;;;;2.85;0.85;;;25.70;99.90;;;;;;1899357;74;21493;-75
2022/06/11 11:42:38;;;;;;;1.40;0.98;;;25.80;99.90;;;;;;1894564;75;21169;-76
2022/06/11 11:45:32;;;;;;;3.45;1.07;;;25.80;99.90;;;;;;1905606;75;21064;-76
2022/06/11 11:48:28;;;;;;;2.05;0.80;;;26.00;99.90;;;;;;1860453;76;21638;-76
2022/06/11 11:51:24;;;;;;;1.55;0.85;;;26.10;99.90;;;;;;1906372;75;21100;-75
2022/06/11 11:54:19;;;;;;;2.05;0.88;;;26.20;99.90;;;;;;1876292;76;21047;-75
2022/06/11 11:57:15;;;;;;;2.27;0.90;;;26.20;99.90;;;;;;1857946;76;21528;-75
2022/06/11 12:00:13;;;;;;;3.42;1.00;;;26.30;99.90;;;;;;1897598;75;21153;-75
2022/06/11 12:03:08;;;;;;;3.75;0.80;;;26.50;99.90;;;;;;1900985;74;21087;-75
2022/06/11 12:08:42;;;;;;;2.77;0.80;;;26.60;99.90;;;;;;1926998;72;22202;-75
2022/06/11 12:12:07;;;;;;;1.37;0.88;;;26.60;99.90;;;;;;1905582;73;21182;-75
2022/06/11 12:15:22;;;;;;;2.25;1.00;;;26.70;99.90;;;;;;1905352;73;21018;-75
2022/06/11 12:18:16;;;;;;;1.27;0.70;;;26.80;99.90;;;;;;1905893;73;21050;-75
2022/06/11 12:21:29;;;;;;;1.85;0.68;;;27.00;99.90;;;;;;1897713;75;21126;-75
2022/06/11 12:24:24;;;;;;;4.10;1.00;;;27.00;99.90;;;;;;1902272;74;21138;-75
2022/06/11 12:27:18;;;;;;;2.95;0.90;;;27.00;99.90;;;;;;1899029;73;21084;-75
2022/06/11 12:30:15;;;;;;;1.02;0.93;;;27.00;99.90;;;;;;1900198;73;21089;-75
2022/06/11 12:33:12;;;;;;;1.50;0.78;;;27.10;99.90;;;;;;1895534;74;21165;-75
2022/06/11 12:36:10;;;;;;;2.00;0.90;;;27.10;99.90;;;;;;1900393;75;21793;-75
2022/06/11 12:41:48;;;;;;;2.15;1.17;;;27.20;99.90;;;;;;1931432;72;22336;-76
2022/06/11 12:45:04;;;;;;;2.45;1.12;;;27.30;99.90;;;;;;1835144;76;21191;-76
2022/06/11 12:48:40;;;;;;;2.83;0.90;;;27.40;99.90;;;;;;1890088;74;21100;-75
2022/06/11 12:51:35;;;;;;;1.37;0.85;;;27.40;99.90;;;;;;1898940;74;21162;-76
2022/06/11 12:54:54;;;;;;;1.42;1.00;;;27.60;99.90;;;;;;1898687;74;21146;-76
2022/06/11 12:57:51;;;;;;;2.17;0.80;;;27.80;99.90;;;;;;1896036;74;21071;-76
2022/06/11 13:00:47;;;;;;;0.95;0.70;;;27.70;99.90;;;;;;1893739;74;21080;-76
2022/06/11 13:03:55;;;;;;;5.55;0.95;;;27.60;99.90;;;;;;1911587;74;21119;-75
2022/06/11 13:07:00;;;;;;;1.47;0.70;;;27.70;99.90;;;;;;1896680;74;21149;-76
2022/06/11 13:10:10;;;;;;;1.82;0.60;;;27.70;99.90;;;;;;1900616;74;21096;-75
2022/06/11 13:13:18;;;;;;;3.65;0.68;;;27.60;99.90;;;;;;1900393;74;21261;-75
2022/06/11 13:16:14;;;;;;;3.12;0.72;;;27.70;99.90;;;;;;1897638;74;21170;-75
2022/06/11 13:19:18;;;;;;;2.00;0.72;;;27.80;99.90;;;;;;1899074;74;21224;-75
2022/06/11 13:22:14;;;;;;;1.72;0.72;;;28.00;99.90;;;;;;1893022;74;21169;-76
2022/06/11 13:25:10;;;;;;;2.47;0.90;;;28.10;99.90;;;;;;1906770;74;21271;-75
2022/06/11 13:28:07;;;;;;;1.90;0.72;;;28.00;99.90;;;;;;1902258;74;21227;-75
2022/06/11 13:31:02;;;;;;;2.08;0.98;;;28.20;99.90;;;;;;1890479;74;21093;-75
2022/06/11 13:34:02;;;;;;;1.65;0.70;;;28.40;99.90;;;;;;1899737;74;21124;-75
2022/06/11 13:37:00;;;;;;;1.77;0.80;;;28.40;99.90;;;;;;1905864;74;21546;-75
2022/06/11 13:40:04;;;;;;;2.55;0.72;;;28.40;99.90;;;;;;1894511;74;21100;-75
2022/06/11 13:43:02;;;;;;;2.35;0.88;;;28.60;99.80;;;;;;1894455;74;21115;-76
2022/06/11 13:45:58;;;;;;;1.02;0.70;;;28.60;99.80;;;;;;1901902;74;21125;-76
2022/06/11 13:49:01;;;;;;;1.77;0.80;;;28.90;99.30;;;;;;1903629;74;21056;-75
2022/06/11 13:51:58;;;;;;;0.82;0.70;;;29.10;98.90;;;;;;1895793;74;21543;-75
2022/06/11 13:58:17;;;;;;;1.75;0.65;;;29.50;97.40;;;;;;1894549;74;21173;-75
2022/06/11 14:01:26;;;;;;;0.90;0.70;;;29.70;97.00;;;;;;1898095;74;21079;-75
2022/06/11 14:07:26;;;;;;;1.98;0.82;;;30.10;95.80;;;;;;1949305;72;22158;-75
2022/06/11 14:10:41;;;;;;;1.70;0.55;;;30.00;94.90;;;;;;1902723;73;21465;-75
2022/06/11 14:13:57;;;;;;;2.30;0.95;;;30.20;94.10;;;;;;1910759;74;21032;-76
2022/06/11 14:16:49;;;;;;;0.57;0.57;;;30.70;93.40;;;;;;1869714;75;21169;-75
2022/06/11 14:20:21;;;;;;;1.00;0.60;;;30.90;92.50;;;;;;1913518;74;21098;-76
2022/06/11 14:23:34;;;;;;;0.85;0.50;;;31.00;92.40;;;;;;1904278;74;21063;-75
2022/06/11 14:26:52;;;;;;;1.15;0.70;;;31.00;92.10;;;;;;1910917;74;21139;-76
2022/06/11 14:32:32;;;;;;;1.35;0.70;;;31.10;91.00;;;;;;1933499;72;22375;-75
2022/06/11 14:35:54;;;;;;;1.00;0.50;;;31.00;90.40;;;;;;1913171;74;21097;-75
2022/06/11 14:39:07;;;;;;;0.50;0.50;;;31.00;90.10;;;;;;1912537;74;21717;-75
2022/06/11 14:42:13;;;;;;;1.32;0.80;;;31.40;89.90;;;;;;1906628;74;21082;-75
2022/06/11 14:49:12;;;;;;;1.02;0.50;;;31.60;87.70;;;;;;1940699;72;22629;-75
2022/06/11 14:52:48;;;;;;;0.60;0.60;;;31.90;84.00;;;;;;1920426;73;21209;-75
2022/06/11 14:56:01;;;;;;;0.65;0.45;;;32.20;83.00;;;;;;1918130;73;21077;-75
2022/06/11 14:59:12;;;;;;;0.50;0.50;;;32.30;82.30;;;;;;1917691;73;21096;-75
2022/06/11 15:03:17;;;;;;;2.37;0.70;;;32.80;79.40;;;;;;1916381;75;21534;-75
2022/06/11 15:06:31;;;;;;;2.20;0.70;;;32.90;78.70;;;;;;1917934;73;21542;-75
2022/06/11 15:09:47;;;;;;;1.70;0.70;;;33.00;77.20;;;;;;1915625;73;21225;-75
2022/06/11 15:13:12;;;;;;;1.10;0.62;;;33.00;75.90;;;;;;1922723;73;21152;-75
2022/06/11 15:16:17;;;;;;;0.60;0.50;;;32.80;74.50;;;;;;1920914;73;21653;-74
2022/06/11 15:19:12;;;;;;;2.85;0.60;;;33.30;73.70;;;;;;1916889;75;21162;-75
2022/06/11 15:22:07;;;;;;;1.85;0.60;;;33.00;73.70;;;;;;1917253;73;21166;-75
2022/06/11 15:25:04;;;;;;;0.55;0.50;;;33.20;73.10;;;;;;1923324;73;21210;-75
2022/06/11 15:27:59;;;;;;;2.72;0.72;;;32.90;72.50;;;;;;1917021;73;21147;-75
2022/06/11 15:30:50;;;;;;;1.95;0.70;;;33.30;72.70;;;;;;1916893;73;21108;-75
2022/06/11 15:33:41;;;;;;;1.85;0.68;;;33.70;71.10;;;;;;1920580;73;21106;-75
2022/06/11 15:36:32;;;;;;;1.82;0.60;;;33.80;69.70;;;;;;1918228;73;21130;-75
2022/06/11 15:39:25;;;;;;;1.05;0.65;;;34.00;68.60;;;;;;1917324;73;21200;-75
2022/06/11 15:42:19;;;;;;;0.88;0.60;;;33.80;68.40;;;;;;1917451;73;21066;-75
2022/06/11 15:45:13;;;;;;;3.37;0.62;;;34.00;68.50;;;;;;1922614;73;21064;-75
2022/06/11 15:48:10;;;;;;;0.72;0.60;;;34.20;67.30;;;;;;1921963;74;21227;-75
2022/06/11 15:51:02;;;;;;;;;;;34.00;67.70;;;;;;1921861;74;21636;-75
2022/06/11 15:57:24;;;;;;;1.07;0.70;;;34.20;67.20;;;;;;1845555;77;21241;-75
2022/06/11 16:00:31;;;;;;;1.82;0.80;;;34.00;66.60;;;;;;1911091;74;21162;-76
2022/06/11 16:06:05;;;;;;;0.75;0.50;;;34.60;64.60;;;;;;1933377;72;22649;-75
2022/06/11 16:09:22;;;;;;;1.62;0.70;;;35.40;63.90;;;;;;1891388;74;21183;-76
2022/06/11 16:12:35;;;;;;;2.22;0.80;;;34.80;63.20;;;;;;1895378;74;21140;-75
2022/06/11 16:15:30;;;;;;;0.70;0.70;;;34.60;63.20;;;;;;1897171;74;21056;-76
2022/06/11 16:18:40;;;;;;;1.07;0.60;;;35.00;63.90;;;;;;1902714;74;21119;-75
2022/06/11 16:21:32;;;;;;;1.50;0.60;;;35.10;62.70;;;;;;1902941;74;21517;-76
2022/06/11 16:24:27;;;;;;;1.10;0.60;;;35.00;62.10;;;;;;1893725;74;21532;-76
2022/06/11 16:27:22;;;;;;;0.70;0.50;;;35.30;61.40;;;;;;1893095;74;21095;-76
2022/06/11 16:32:58;;;;;;;1.70;0.75;;;35.30;61.20;;;;;;1945162;72;22196;-75
2022/06/11 16:36:10;;;;;;;1.27;0.70;;;35.30;61.10;;;;;;1918787;73;21593;-75
2022/06/11 16:39:34;;;;;;;1.45;0.70;;;35.50;60.30;;;;;;1916494;73;21177;-75
2022/06/11 16:42:47;;;;;;;1.35;0.72;;;35.60;60.30;;;;;;1917942;73;21162;-75
2022/06/11 16:45:59;;;;;;;2.65;0.85;;;35.90;59.30;;;;;;1929956;73;21090;-76
2022/06/11 16:48:52;;;;;;;3.00;0.80;;;35.80;58.90;;;;;;1923047;73;21099;-76
2022/06/11 16:58:32;;;;;;;0.72;0.57;;;36.20;57.50;;;;;;1921432;73;21106;-76
2022/06/11 17:01:25;;;;;;;1.37;0.60;;;36.20;57.30;;;;;;1917186;73;21146;-75
2022/06/11 17:04:23;;;;;;;2.70;0.80;;;36.50;56.40;;;;;;1923079;73;21576;-75
2022/06/11 17:07:28;;;;;;;2.30;0.80;;;36.20;57.10;;;;;;1923096;73;21047;-75
2022/06/11 17:10:34;;;;;;;0.95;0.60;;;36.00;57.30;;;;;;1917167;73;21139;-75
2022/06/11 21:05:26;;;;;;;2.77;1.62;;;24.80;99.90;;;;;;1852161;76;21173;-81
2022/06/11 21:14:38;;;;;;;2.67;1.30;;;24.50;99.90;;;;;;1823409;78;21227;-82
2022/06/11 21:17:29;;;;;;;0.90;0.90;;;24.50;99.90;;;;;;1818973;78;21308;-81
2022/06/11 21:20:23;;;;;;;2.40;1.32;;;24.50;99.90;;;;;;1819278;78;21121;-81
2022/06/11 21:23:15;;;;;;;1.35;0.95;;;24.40;99.90;;;;;;1761679;81;21133;-81
2022/06/11 21:28:46;;;;;;;2.27;1.05;;;24.20;99.90;;;;;;1937486;72;22245;-81
2022/06/11 21:31:55;;;;;;;1.72;1.02;;;24.10;99.90;;;;;;1889615;75;21170;-81
2022/06/11 21:35:06;;;;;;;2.37;0.82;;;24.00;99.90;;;;;;1898543;73;21141;-81
2022/06/11 21:37:58;;;;;;;0.85;0.70;;;24.00;99.90;;;;;;1894655;74;21143;-81
2022/06/11 21:44:21;;;;;;;2.20;1.00;;;24.00;99.90;;;;;;1886815;75;21196;-81
2022/06/11 21:47:14;;;;;;;5.67;2.72;;;23.90;99.90;;;;;;1902393;75;21077;-81
2022/06/11 21:50:09;;;;;;;5.42;2.87;;;23.80;99.90;;;;;;1887882;75;21161;-82
2022/06/11 21:53:01;;;;;;;2.58;2.25;;;23.70;99.90;;;;;;1892877;75;21877;-81
2022/06/11 21:55:52;;;;;;;6.55;2.30;;;23.60;99.90;;;;;;1910132;74;21118;-81
2022/06/11 21:58:43;;;;;;;1.87;1.27;;;23.50;99.90;;;;;;1896159;75;21162;-81
2022/06/11 22:01:38;;;;;;;3.50;2.10;;;23.40;99.90;;;;;;1902763;75;21243;-81
2022/06/11 22:04:31;;;;;;;3.25;1.62;;;23.40;99.90;;;;;;1899452;73;21063;-82
2022/06/11 22:07:26;;;;;;;2.85;1.60;;;23.40;99.90;;;;;;1902893;75;21168;-81
2022/06/11 22:10:37;;;;;;;1.95;1.10;;;23.40;99.90;;;;;;1893215;74;21135;-81
2022/06/11 22:13:29;;;;;;;4.17;1.30;;;23.30;99.90;;;;;;1890333;75;21578;-81
2022/06/11 22:16:21;;;;;;;1.95;0.90;;;23.30;99.90;;;;;;1900334;75;21097;-81
2022/06/11 22:19:22;;;;;;;1.52;1.00;;;23.30;99.90;;;;;;1903046;75;21094;-81
2022/06/11 22:22:20;;;;;;;1.40;1.10;;;23.30;99.90;;;;;;1909748;74;21054;-81
2022/06/11 22:27:54;;;;;;;2.17;1.40;;;23.10;99.90;;;;;;1921697;72;22136;-81
2022/06/11 22:31:04;;;;;;;2.40;1.85;;;23.00;99.90;;;;;;1898290;74;21134;-81
2022/06/11 22:34:14;;;;;;;2.55;1.75;;;22.90;99.90;;;;;;1901164;74;21087;-81
2022/06/11 22:37:07;;;;;;;3.47;1.60;;;22.60;99.90;;;;;;1897167;75;21183;-81
2022/06/11 22:42:56;;;;;;;3.98;1.80;;;22.50;99.90;;;;;;1919580;72;22209;-81
2022/06/11 22:46:06;;;;;;;3.40;1.80;;;22.40;99.90;;;;;;1904603;74;21145;-81
2022/06/11 22:49:16;;;;;;;2.85;2.12;;;22.30;99.90;;;;;;1902474;74;21517;-80
2022/06/11 22:52:09;;;;;;;3.72;1.70;;;22.40;99.90;;;;;;1901995;74;21153;-81
2022/06/11 22:55:21;;;;;;;4.65;1.40;;;22.40;99.90;;;;;;1890032;74;21138;-81
2022/06/11 22:58:13;;;;;;;3.85;2.15;;;22.30;99.90;;;;;;1897732;74;21121;-81